Time;durP1;ratioP1;P1;durP2;ratioP2;P2;SDS_P1;SDS_P2;PMS_P1;PMS_P2;Temp;Humidity;BMP_temperature;BMP_pressure;BME280_temperature;BME280_humidity;BME280_pressure;Samples;Min_cycle;Max_cycle;Signal;HPM_P1;HPM_P2
2022/10/28 00:01:05;;;;;;;4.67;4.37;;;;;;;-142.65;77.34;50170.78;5115139;28;20209;-69
2022/10/28 00:03:31;;;;;;;5.47;5.03;;;;;;;;;;5115684;28;20197;-69
2022/10/28 00:06:06;;;;;;;5.90;4.40;;;;;;;-142.65;76.72;50174.75;5115194;28;20554;-69
2022/10/28 00:08:33;;;;;;;11.37;4.73;;;;;;;;;;5115411;28;20173;-69
2022/10/28 00:11:08;;;;;;;6.40;4.00;;;;;;;-142.65;76.17;50170.78;5114912;28;20224;-69
2022/10/28 00:13:35;;;;;;;4.57;4.27;;;;;;;-142.65;75.86;50172.78;5115361;28;20196;-69
2022/10/28 00:16:30;;;;;;;13.83;5.10;;;;;;;-142.65;74.43;50164.81;5114945;28;20192;-69
2022/10/28 00:18:57;;;;;;;4.80;4.33;;;;;;;;;;5111750;28;20217;-69
2022/10/28 00:21:26;;;;;;;7.60;4.80;;;;;;;-142.65;73.48;50168.78;5114792;28;20701;-69
2022/10/28 00:23:53;;;;;;;8.70;4.60;;;;;;;-142.65;72.87;50172.78;5115076;28;20196;-69
2022/10/28 00:26:28;;;;;;;9.33;4.37;;;;;;;-142.65;72.96;50164.81;5114746;28;20192;-69
2022/10/28 00:28:58;;;;;;;9.67;4.97;;;;;;;-142.65;71.95;50162.81;5096759;28;20185;-69
2022/10/28 00:31:27;;;;;;;5.73;4.43;;;;;;;-142.65;71.83;50168.78;5114761;28;20236;-69
2022/10/28 00:33:54;;;;;;;4.43;4.07;;;;;;;-142.65;72.20;50164.81;5114602;28;20189;-69
2022/10/28 00:36:22;;;;;;;9.87;4.47;;;;;;;;;;5114847;28;20185;-69
2022/10/28 00:38:50;;;;;;;9.07;4.93;;;;;;;-142.65;72.00;50170.78;5114517;28;20185;-69
2022/10/28 00:41:25;;;;;;;4.30;3.93;;;;;;;-142.65;72.10;50170.78;5114397;28;20197;-69
2022/10/28 00:43:53;;;;;;;9.60;3.27;;;;;;;;;;5114722;28;20177;-69
2022/10/28 00:46:36;;;;;;;8.43;3.63;;;;;;;-142.65;72.04;50170.78;5114681;28;20538;-69
2022/10/28 00:49:26;;;;;;;6.27;4.20;;;;;;;-142.65;72.32;50170.78;5114387;28;20555;-69
2022/10/28 00:51:58;;;;;;;5.97;4.10;;;;;;;-142.65;72.28;50162.81;5114533;28;20208;-69
2022/10/28 00:54:26;;;;;;;4.57;4.07;;;;;;;-142.65;71.74;50162.81;5114524;28;20631;-69
2022/10/28 00:56:54;;;;;;;11.03;4.13;;;;;;;;;;5114216;28;20192;-69
2022/10/28 00:59:23;;;;;;;4.30;4.00;;;;;;;;;;5114176;28;20197;-69
2022/10/28 01:01:49;;;;;;;7.07;4.70;;;;;;;;;;5114328;28;20695;-70
2022/10/28 01:04:16;;;;;;;7.90;4.03;;;;;;;-142.65;71.45;50162.81;5114074;28;20177;-70
2022/10/28 01:06:42;;;;;;;5.77;4.20;;;;;;;-142.65;71.33;50170.78;5114269;28;20193;-70
2022/10/28 01:09:08;;;;;;;8.43;4.50;;;;;;;-142.65;71.42;50164.81;5114802;28;20196;-70
2022/10/28 01:11:41;;;;;;;5.00;4.50;;;;;;;;;;5113810;28;20217;-70
2022/10/28 01:14:08;;;;;;;4.43;4.13;;;;;;;;;;5114067;28;20228;-69
2022/10/28 01:16:34;;;;;;;10.77;4.57;;;;;;;;;;5113889;28;20659;-69
2022/10/28 01:19:18;;;;;;;3.70;3.40;;;;;;;;;;5113895;28;20700;-69
2022/10/28 01:22:04;;;;;;;8.03;4.33;;;;;;;-142.65;71.71;50170.78;5114019;28;20209;-69
2022/10/28 01:24:58;;;;;;;11.13;3.87;;;;;;;-142.65;71.97;50164.81;5114446;28;20532;-69
2022/10/28 01:27:39;;;;;;;5.67;3.70;;;;;;;-142.65;71.64;50168.78;5114364;28;20174;-69
2022/10/28 01:30:10;;;;;;;9.83;4.10;;;;;;;-142.65;71.31;50170.78;5113702;28;20200;-69
2022/10/28 01:32:44;;;;;;;8.03;4.10;;;;;;;-142.65;70.76;50162.81;5114013;28;20566;-70
2022/10/28 01:35:21;;;;;;;4.77;4.07;;;;;;;-142.65;70.76;50168.78;5114015;28;20181;-70
2022/10/28 01:38:07;;;;;;;4.40;4.00;;;;;;;;;;5117307;28;20172;-70
2022/10/28 01:41:12;;;;;;;8.70;4.27;;;;;;;-142.65;70.21;50170.78;5120735;28;20173;-70
2022/10/28 01:44:00;;;;;;;12.37;3.63;;;;;;;-142.65;70.68;50170.78;5118694;28;20223;-69
2022/10/28 01:46:33;;;;;;;7.73;4.20;;;;;;;-142.65;71.78;50164.81;5121050;28;20180;-69
2022/10/28 01:49:08;;;;;;;5.67;3.13;;;;;;;-142.65;72.55;50164.81;5121061;28;20169;-69
2022/10/28 01:51:41;;;;;;;8.23;3.90;;;;;;;-142.65;72.93;50164.81;5120475;28;20290;-69
2022/10/28 01:54:11;;;;;;;8.13;4.10;;;;;;;-142.65;73.24;50168.78;5120386;28;20180;-69
2022/10/28 01:56:40;;;;;;;12.87;5.30;;;;;;;;;;5120644;28;20180;-69
2022/10/28 01:59:12;;;;;;;12.80;4.40;;;;;;;-142.65;72.47;50164.81;5120597;28;20177;-69
2022/10/28 02:01:38;;;;;;;5.57;3.70;;;;;;;-142.65;71.12;50168.78;5120272;27;20201;-70
2022/10/28 02:04:05;;;;;;;7.30;3.87;;;;;;;;;;5120282;28;20234;-69
2022/10/28 02:06:33;;;;;;;17.70;4.50;;;;;;;-142.65;70.54;50168.78;5120527;28;20666;-69
2022/10/28 02:09:05;;;;;;;4.30;3.50;;;;;;;;;;5120530;28;20177;-69
2022/10/28 02:11:52;;;;;;;10.77;3.67;;;;;;;-142.65;70.30;50168.78;5120486;28;20646;-70
2022/10/28 02:14:36;;;;;;;12.83;4.73;;;;;;;-142.65;69.65;50164.81;5120473;28;20193;-70
2022/10/28 02:17:11;;;;;;;12.23;4.17;;;;;;;-142.65;68.50;50168.78;5120453;28;20184;-70
2022/10/28 02:19:59;;;;;;;6.47;4.77;;;;;;;;;;5102192;28;20193;-70
2022/10/28 02:22:45;;;;;;;8.03;4.13;;;;;;;-142.65;69.40;50170.78;5120376;28;20209;-69
2022/10/28 02:25:35;;;;;;;4.60;4.40;;;;;;;-142.65;69.27;50162.81;5120374;28;20177;-69
2022/10/28 02:28:05;;;;;;;12.37;3.60;;;;;;;;;;5120639;28;20174;-69
2022/10/28 02:30:33;;;;;;;4.93;3.60;;;;;;;;;;5119849;28;20243;-70
2022/10/28 02:33:02;;;;;;;15.03;3.67;;;;;;;-142.65;68.20;50164.81;5119980;28;20196;-69
2022/10/28 02:35:37;;;;;;;7.07;3.80;;;;;;;;;;5120332;28;20198;-69
2022/10/28 02:38:06;;;;;;;5.07;4.07;;;;;;;;;;5120234;28;20539;-69
2022/10/28 02:40:33;;;;;;;9.23;3.60;;;;;;;;;;5119831;28;20181;-69
2022/10/28 02:43:02;;;;;;;7.20;4.00;;;;;;;;;;5119950;28;20176;-69
2022/10/28 02:45:34;;;;;;;3.90;3.53;;;;;;;-142.65;68.67;50168.78;5119901;28;20194;-69
2022/10/28 02:48:07;;;;;;;8.27;4.73;;;;;;;-142.65;68.67;50168.78;5120282;28;20531;-69
2022/10/28 02:50:35;;;;;;;11.30;4.23;;;;;;;;;;5115800;28;20193;-69
2022/10/28 02:53:07;;;;;;;23.07;4.70;;;;;;;-142.65;68.97;50162.81;5116870;28;20580;-69
2022/10/28 02:55:38;;;;;;;12.97;4.10;;;;;;;;;;5116620;28;20184;-69
2022/10/28 02:58:05;;;;;;;17.57;6.43;;;;;;;;;;5116814;28;20172;-69
2022/10/28 03:00:31;;;;;;;12.97;4.80;;;;;;;-142.65;70.02;50174.75;5116364;28;20181;-69
2022/10/28 03:02:58;;;;;;;12.03;4.97;;;;;;;-142.65;69.58;50164.81;5117001;28;20209;-69
2022/10/28 03:05:24;;;;;;;14.10;4.30;;;;;;;-142.65;69.81;50168.78;5116334;28;20181;-69
2022/10/28 03:07:50;;;;;;;13.70;5.80;;;;;;;;;;5116333;28;20276;-69
2022/10/28 03:10:17;;;;;;;10.00;4.63;;;;;;;-142.65;70.06;50162.81;5116204;28;20189;-69
2022/10/28 03:12:43;;;;;;;8.50;4.33;;;;;;;-142.65;70.19;50164.81;5116732;28;20220;-69
2022/10/28 03:15:10;;;;;;;5.03;3.70;;;;;;;-142.65;70.51;50164.81;5116093;28;20203;-69
2022/10/28 03:17:36;;;;;;;11.03;4.67;;;;;;;-142.65;70.25;50170.78;5116051;28;20200;-69
2022/10/28 03:20:03;;;;;;;9.30;3.90;;;;;;;-142.65;70.41;50170.78;5116126;28;20178;-69
2022/10/28 03:22:29;;;;;;;7.77;4.73;;;;;;;-142.65;70.71;50170.78;5116006;28;20293;-69
2022/10/28 03:24:56;;;;;;;8.60;6.83;;;;;;;;;;5116031;28;20561;-69
2022/10/28 03:27:22;;;;;;;14.00;5.93;;;;;;;-142.65;71.04;50168.78;5115943;28;20189;-69
2022/10/28 03:29:48;;;;;;;5.83;5.07;;;;;;;-142.65;71.37;50170.78;5116185;28;20192;-69
2022/10/28 03:32:15;;;;;;;7.97;4.33;;;;;;;;;;5115705;28;20209;-69
2022/10/28 03:34:41;;;;;;;10.03;4.30;;;;;;;-142.65;71.94;50168.78;5115823;28;20203;-69
2022/10/28 03:37:08;;;;;;;8.17;4.73;;;;;;;-142.65;72.45;50164.81;5115760;28;20670;-69
2022/10/28 03:39:34;;;;;;;17.67;4.53;;;;;;;-142.65;72.43;50168.78;5115996;28;20181;-69
2022/10/28 03:42:00;;;;;;;4.20;3.90;;;;;;;-142.65;72.86;50170.78;5115876;28;20570;-69
2022/10/28 03:44:27;;;;;;;4.93;4.43;;;;;;;;;;5115580;28;20200;-69
2022/10/28 03:46:53;;;;;;;11.03;4.47;;;;;;;-142.65;73.51;50170.78;5115546;28;20185;-69
2022/10/28 03:49:19;;;;;;;11.43;4.43;;;;;;;-142.65;74.32;50172.78;5116064;28;20189;-69
2022/10/28 03:51:46;;;;;;;9.20;5.37;;;;;;;-142.65;74.82;50164.81;5115286;28;20219;-69
2022/10/28 03:54:12;;;;;;;9.00;5.23;;;;;;;-142.65;75.18;50162.81;5115973;28;20189;-69
2022/10/28 03:56:39;;;;;;;7.47;4.60;;;;;;;-142.65;75.77;50168.78;5115886;28;20192;-69
2022/10/28 03:59:07;;;;;;;5.10;4.37;;;;;;;;;;5115343;28;20185;-69
2022/10/28 04:01:34;;;;;;;6.63;4.43;;;;;;;-142.65;75.63;50168.78;5114868;28;20317;-69
2022/10/28 04:04:00;;;;;;;8.70;4.73;;;;;;;-142.65;75.79;50168.78;5115171;28;20231;-69
2022/10/28 04:06:26;;;;;;;14.97;5.70;;;;;;;-142.65;76.03;50170.78;5115171;28;20185;-69
2022/10/28 04:08:53;;;;;;;9.00;5.83;;;;;;;-142.65;75.82;50174.75;5115104;28;20177;-69
2022/10/28 04:11:19;;;;;;;5.40;4.83;;;;;;;-142.65;76.12;50170.78;5114865;28;20217;-69
2022/10/28 04:13:46;;;;;;;5.90;4.23;;;;;;;-142.65;76.07;50162.81;5115251;28;20201;-69
2022/10/28 04:16:12;;;;;;;12.47;4.93;;;;;;;;;;5114974;28;20667;-69
2022/10/28 04:18:38;;;;;;;7.73;4.97;;;;;;;-142.65;76.28;50170.78;5114918;28;20205;-69
2022/10/28 04:21:04;;;;;;;6.00;4.17;;;;;;;;;;5114731;28;20205;-69
2022/10/28 04:23:31;;;;;;;10.30;4.53;;;;;;;;;;5115078;28;20196;-70
2022/10/28 04:25:57;;;;;;;5.43;5.03;;;;;;;-142.65;75.49;50168.78;5115040;28;20192;-70
2022/10/28 04:28:23;;;;;;;8.13;4.20;;;;;;;-142.65;75.60;50164.81;5114691;28;20690;-70
2022/10/28 04:30:50;;;;;;;5.80;4.43;;;;;;;-142.65;75.40;50162.81;5114516;28;20209;-70
2022/10/28 04:33:16;;;;;;;15.27;4.20;;;;;;;-142.65;75.57;50164.81;5114602;28;20190;-69
2022/10/28 04:35:43;;;;;;;9.20;4.13;;;;;;;-142.65;75.60;50170.78;5114564;28;20191;-69
2022/10/28 04:38:10;;;;;;;6.60;4.20;;;;;;;;;;5114530;28;20193;-69
2022/10/28 04:40:36;;;;;;;11.37;4.07;;;;;;;-142.65;76.08;50162.81;5114451;28;20285;-70
2022/10/28 04:43:03;;;;;;;7.10;4.07;;;;;;;;;;5114436;28;20196;-70
2022/10/28 04:45:35;;;;;;;15.97;4.40;;;;;;;-142.65;75.69;50172.78;5115248;28;20173;-70
2022/10/28 04:48:01;;;;;;;12.23;4.27;;;;;;;-142.65;75.50;50168.78;5114336;28;20185;-70
2022/10/28 04:50:27;;;;;;;12.23;3.97;;;;;;;-142.65;75.19;50164.81;5114266;28;20185;-70
2022/10/28 04:52:54;;;;;;;5.43;4.83;;;;;;;-142.65;75.19;50178.75;5114222;28;20216;-70
2022/10/28 04:55:21;;;;;;;7.77;3.90;;;;;;;;;;5114563;28;20648;-69
2022/10/28 04:57:55;;;;;;;11.60;4.97;;;;;;;-142.65;75.72;50170.78;5114205;28;20674;-69
2022/10/28 05:00:22;;;;;;;5.50;3.70;;;;;;;;;;5114148;28;20183;-70
2022/10/28 05:02:48;;;;;;;7.03;4.30;;;;;;;;;;5114095;28;20600;-70
2022/10/28 05:05:14;;;;;;;13.73;5.30;;;;;;;;;;5114064;28;20189;-69
2022/10/28 05:07:42;;;;;;;4.10;4.00;;;;;;;-142.65;76.54;50162.81;5113887;28;20220;-69
2022/10/28 05:10:08;;;;;;;12.43;5.47;;;;;;;-142.65;76.44;50170.78;5114024;28;20185;-69
2022/10/28 05:12:35;;;;;;;18.53;4.67;;;;;;;;;;5113129;28;20209;-70
2022/10/28 05:15:01;;;;;;;10.90;5.20;;;;;;;-142.65;77.55;50170.78;5114026;28;20662;-70
2022/10/28 05:17:27;;;;;;;6.07;4.23;;;;;;;-142.65;78.25;50164.81;5113936;28;20196;-70
2022/10/28 05:19:54;;;;;;;10.37;4.67;;;;;;;-142.65;78.50;50164.81;5113840;28;20193;-70
2022/10/28 05:22:20;;;;;;;7.97;4.40;;;;;;;-142.65;78.73;50170.78;5114028;28;20200;-70
2022/10/28 05:24:46;;;;;;;35.37;5.80;;;;;;;-142.65;78.99;50168.78;5114006;28;20204;-70
2022/10/28 05:27:14;;;;;;;6.73;4.50;;;;;;;-142.65;79.33;50168.78;5113656;28;20201;-70
2022/10/28 05:29:41;;;;;;;8.77;4.77;;;;;;;-142.65;79.29;50172.78;5113693;28;20189;-70
2022/10/28 05:32:07;;;;;;;9.43;4.73;;;;;;;-142.65;79.56;50172.78;5113490;28;20205;-70
2022/10/28 05:34:33;;;;;;;7.50;5.20;;;;;;;;;;5114078;28;20176;-70
2022/10/28 05:37:00;;;;;;;5.13;4.80;;;;;;;-142.65;79.46;50170.78;5113634;28;20189;-70
2022/10/28 05:39:26;;;;;;;8.90;5.63;;;;;;;;;;5113594;28;20185;-70
2022/10/28 05:41:52;;;;;;;8.57;4.53;;;;;;;-142.65;79.73;50174.75;5113489;28;20213;-70
2022/10/28 05:44:19;;;;;;;11.10;5.07;;;;;;;-142.65;80.03;50168.78;5113547;28;20196;-69
2022/10/28 05:46:45;;;;;;;9.03;5.40;;;;;;;;;;5113840;28;20185;-69
2022/10/28 05:49:11;;;;;;;11.67;5.70;;;;;;;;;;5113883;28;20177;-69
2022/10/28 05:51:37;;;;;;;13.03;5.20;;;;;;;-142.65;80.29;50168.78;5113561;28;20228;-69
2022/10/28 05:54:04;;;;;;;17.17;6.00;;;;;;;;;;5114059;28;20185;-69
2022/10/28 05:56:30;;;;;;;10.40;6.03;;;;;;;-142.65;80.38;50170.78;5113695;28;20247;-69
2022/10/28 05:58:56;;;;;;;20.10;5.97;;;;;;;;;;5113704;28;20207;-69
2022/10/28 06:01:23;;;;;;;9.00;5.63;;;;;;;;;;5113904;28;20209;-70
2022/10/28 06:03:49;;;;;;;9.53;5.87;;;;;;;;;;5114040;28;20182;-70
2022/10/28 06:06:15;;;;;;;6.80;4.67;;;;;;;;;;5113874;28;20670;-69
2022/10/28 06:08:41;;;;;;;10.70;6.17;;;;;;;-142.65;79.78;50168.78;5113342;28;20181;-69
2022/10/28 06:11:08;;;;;;;11.37;5.60;;;;;;;-142.65;79.82;50170.78;5113230;28;20224;-70
2022/10/28 06:13:34;;;;;;;10.33;6.30;;;;;;;-142.65;80.17;50172.78;5113260;28;20201;-70
2022/10/28 06:16:00;;;;;;;13.73;6.53;;;;;;;-142.65;80.32;50168.78;5113320;28;20194;-69
2022/10/28 06:18:27;;;;;;;22.67;6.13;;;;;;;;;;5113612;28;20181;-69
2022/10/28 06:20:54;;;;;;;15.47;6.53;;;;;;;;;;5113183;28;20272;-70
2022/10/28 06:23:21;;;;;;;11.50;6.50;;;;;;;-142.65;80.97;50174.75;5114411;28;20173;-70
2022/10/28 06:25:48;;;;;;;10.30;5.13;;;;;;;-142.65;81.20;50168.78;5117126;28;20192;-69
2022/10/28 06:28:14;;;;;;;13.10;6.37;;;;;;;-142.65;81.28;50168.78;5117267;28;20189;-69
2022/10/28 06:30:40;;;;;;;24.23;6.53;;;;;;;-142.65;81.09;50168.78;5116901;28;20189;-70
2022/10/28 06:33:07;;;;;;;8.07;6.43;;;;;;;-142.65;81.07;50168.78;5116899;28;20223;-69
2022/10/28 06:35:33;;;;;;;14.20;5.73;;;;;;;;;;5116955;28;20196;-69
2022/10/28 06:38:00;;;;;;;14.67;6.80;;;;;;;-142.65;81.04;50174.75;5116883;28;20192;-69
2022/10/28 06:40:26;;;;;;;22.00;7.73;;;;;;;;;;5116828;28;20196;-69
2022/10/28 06:42:57;;;;;;;17.63;8.03;;;;;;;-142.65;81.33;50170.78;5116627;28;20212;-69
2022/10/28 06:45:24;;;;;;;19.80;8.53;;;;;;;-142.65;81.18;50168.78;5098524;28;20189;-69
2022/10/28 06:47:55;;;;;;;18.80;7.83;;;;;;;-142.65;81.30;50170.78;5116692;28;20197;-69
2022/10/28 06:50:21;;;;;;;13.73;7.97;;;;;;;;;;5116719;28;20185;-69
2022/10/28 06:52:47;;;;;;;18.70;8.33;;;;;;;-142.65;81.28;50170.78;5116488;28;20216;-70
2022/10/28 06:55:14;;;;;;;19.47;8.00;;;;;;;;;;5116591;28;20181;-69
2022/10/28 06:57:40;;;;;;;17.10;8.53;;;;;;;-142.65;81.74;50170.78;5116481;28;20189;-69
2022/10/28 07:00:07;;;;;;;14.67;8.33;;;;;;;-142.65;81.70;50162.81;5116483;28;20182;-69
2022/10/28 07:02:33;;;;;;;11.17;8.23;;;;;;;;;;5116395;28;20243;-69
2022/10/28 07:05:00;;;;;;;21.90;7.87;;;;;;;-142.65;81.60;50162.81;5116397;28;20181;-69
2022/10/28 07:07:26;;;;;;;13.57;7.20;;;;;;;-142.65;81.59;50164.81;5098630;28;20541;-69
2022/10/28 07:09:52;;;;;;;18.27;8.63;;;;;;;-142.65;81.66;50162.81;5116265;28;20193;-69
2022/10/28 07:12:19;;;;;;;23.37;7.80;;;;;;;;;;5116178;28;20212;-70
2022/10/28 07:14:45;;;;;;;24.80;7.00;;;;;;;-142.65;81.42;50170.78;5116054;28;20208;-70
2022/10/28 07:17:11;;;;;;;14.13;7.67;;;;;;;-142.65;81.21;50170.78;5116128;28;20186;-70
2022/10/28 07:19:38;;;;;;;12.60;7.60;;;;;;;-142.65;81.09;50176.75;5116351;28;20181;-70
2022/10/28 07:22:04;;;;;;;19.13;8.10;;;;;;;-142.65;80.91;50164.81;5115927;28;20197;-69
2022/10/28 07:24:30;;;;;;;11.50;6.97;;;;;;;-142.65;80.80;50170.78;5116061;28;20185;-69
2022/10/28 07:26:57;;;;;;;11.57;7.20;;;;;;;-142.65;80.79;50170.78;5115972;28;20549;-69
2022/10/28 07:29:23;;;;;;;12.60;6.97;;;;;;;-142.65;80.58;50178.75;5116217;28;20188;-69
2022/10/28 07:31:53;;;;;;;11.30;6.60;;;;;;;-142.65;79.53;50162.81;5115756;28;20671;-70
2022/10/28 07:34:20;;;;;;;14.00;5.43;;;;;;;;;;5116293;28;20197;-70
2022/10/28 07:36:53;;;;;;;13.37;5.33;;;;;;;;;;5115363;28;20187;-70
2022/10/28 07:39:20;;;;;;;8.27;5.10;;;;;;;-142.65;77.72;50170.78;5115785;28;20188;-70
2022/10/28 07:41:46;;;;;;;15.40;6.53;;;;;;;-142.65;77.62;50168.78;5116493;28;20238;-70
2022/10/28 07:44:13;;;;;;;5.20;4.77;;;;;;;;;;5115639;28;20181;-70
2022/10/28 07:46:40;;;;;;;5.50;4.13;;;;;;;-142.65;76.34;50168.78;5115615;28;20196;-70
2022/10/28 07:49:06;;;;;;;8.40;4.90;;;;;;;-142.65;76.21;50174.75;5115779;28;20189;-70
2022/10/28 07:51:33;;;;;;;6.53;4.33;;;;;;;;;;5115636;28;20201;-70
2022/10/28 07:53:59;;;;;;;7.00;4.63;;;;;;;-142.65;75.57;50164.81;5115996;28;20200;-70
2022/10/28 07:56:26;;;;;;;6.83;4.80;;;;;;;-142.65;75.22;50162.81;5115395;28;20188;-70
2022/10/28 07:58:52;;;;;;;5.90;4.80;;;;;;;;;;5115921;28;20181;-70
2022/10/28 08:01:19;;;;;;;7.17;5.00;;;;;;;;;;5115206;28;20217;-70
2022/10/28 08:03:48;;;;;;;21.93;5.53;;;;;;;-142.65;75.01;50168.78;5115453;28;20190;-70
2022/10/28 08:06:19;;;;;;;5.70;5.00;;;;;;;-142.65;74.77;50170.78;5115486;28;20189;-70
2022/10/28 08:08:46;;;;;;;14.00;5.70;;;;;;;;;;5115134;28;20181;-70
2022/10/28 08:11:17;;;;;;;6.93;4.97;;;;;;;-142.65;74.67;50164.81;5115025;28;20205;-70
2022/10/28 08:13:45;;;;;;;10.70;5.70;;;;;;;-142.65;75.02;50178.75;5115229;28;20185;-70
2022/10/28 08:16:11;;;;;;;20.67;4.90;;;;;;;;;;5114955;28;20189;-70
2022/10/28 08:18:38;;;;;;;14.47;5.23;;;;;;;-142.65;74.03;50168.78;5114962;28;20181;-70
2022/10/28 08:21:06;;;;;;;5.67;5.17;;;;;;;-142.65;73.50;50118.97;5114753;28;20212;-70
2022/10/28 08:23:33;;;;;;;7.37;4.83;;;;;;;;;;5115059;28;20181;-70
2022/10/28 08:26:00;;;;;;;14.23;5.33;;;;;;;-142.65;73.21;50168.78;5114826;28;20196;-70
2022/10/28 08:28:27;;;;;;;6.40;4.53;;;;;;;-142.65;72.19;50168.78;5114740;28;20185;-70
2022/10/28 08:31:02;;;;;;;7.87;4.60;;;;;;;-142.65;72.60;50162.81;5114919;28;20209;-70
2022/10/28 08:33:35;;;;;;;11.57;5.23;;;;;;;;;;5115189;28;20279;-70
2022/10/28 08:36:01;;;;;;;11.30;4.73;;;;;;;;;;5115126;28;20196;-70
2022/10/28 08:38:27;;;;;;;12.10;4.10;;;;;;;-142.65;72.37;50164.81;5114559;28;20193;-70
2022/10/28 08:41:31;;;;;;;6.83;4.90;;;;;;;-142.65;71.86;50168.78;5114708;28;20235;-70
2022/10/28 08:44:07;;;;;;;10.07;4.87;;;;;;;-142.65;71.76;50162.81;5114743;28;20185;-70
2022/10/28 08:46:36;;;;;;;9.57;5.03;;;;;;;;;;5113987;28;20177;-70
2022/10/28 08:49:10;;;;;;;9.53;4.27;;;;;;;-142.65;71.83;50164.81;5096712;28;20196;-70
2022/10/28 08:51:39;;;;;;;16.90;4.53;;;;;;;-142.65;70.70;50164.81;5114334;28;20238;-70
2022/10/28 08:54:15;;;;;;;16.20;3.70;;;;;;;-142.65;70.52;50170.78;5114184;28;20654;-70
2022/10/28 08:56:45;;;;;;;7.63;5.87;;;;;;;-142.65;70.44;50164.81;5114971;28;20516;-70
2022/10/28 08:59:23;;;;;;;7.03;4.43;;;;;;;-142.65;69.15;50164.81;5114634;28;20185;-70
2022/10/28 09:01:51;;;;;;;9.00;4.63;;;;;;;;;;5114424;28;20212;-70
2022/10/28 09:04:38;;;;;;;14.30;4.77;;;;;;;-142.65;68.72;50162.81;5114224;28;20189;-70
2022/10/28 09:07:09;;;;;;;11.60;5.00;;;;;;;-142.65;67.56;50164.81;5114730;28;20184;-70
2022/10/28 09:09:35;;;;;;;12.17;4.50;;;;;;;-142.65;67.24;50162.81;5114348;28;20184;-70
2022/10/28 09:12:28;;;;;;;6.60;4.27;;;;;;;-142.65;67.70;50168.78;5114665;28;20213;-70
2022/10/28 09:15:16;;;;;;;9.13;4.30;;;;;;;-142.65;67.53;50168.78;5095810;28;20193;-70
2022/10/28 09:18:03;;;;;;;4.63;4.00;;;;;;;-142.65;nan;50170.78;5114170;28;20183;-70
2022/10/28 09:20:52;;;;;;;6.53;4.27;;;;;;;-142.65;66.26;50168.78;5113878;28;20177;-70
2022/10/28 09:23:48;;;;;;;14.73;5.37;;;;;;;-142.65;65.68;50160.81;5114130;28;20184;-70
2022/10/28 09:26:20;;;;;;;14.03;3.93;;;;;;;;;;5114353;28;20177;-70
2022/10/28 09:29:07;;;;;;;12.27;3.90;;;;;;;-142.65;65.30;50162.81;5114070;28;20177;-70
2022/10/28 09:31:41;;;;;;;7.30;5.00;;;;;;;;;;5114205;28;20197;-70
2022/10/28 09:34:26;;;;;;;18.23;4.50;;;;;;;;;;5113696;28;20185;-70
2022/10/28 09:37:15;;;;;;;15.07;4.53;;;;;;;-142.65;63.07;50162.81;5113738;28;20185;-70
2022/10/28 09:39:46;;;;;;;17.03;4.83;;;;;;;-142.65;62.88;50164.81;5113952;28;20177;-70
2022/10/28 09:42:21;;;;;;;10.23;4.13;;;;;;;;;;5113846;28;20212;-70
2022/10/28 09:44:57;;;;;;;10.03;4.17;;;;;;;-142.65;62.94;50162.81;5113581;28;20180;-70
2022/10/28 09:47:36;;;;;;;10.40;4.27;;;;;;;;;;5113914;28;20184;-70
2022/10/28 09:50:11;;;;;;;13.77;4.47;;;;;;;-142.65;61.29;50162.81;5113941;28;20173;-70
2022/10/28 09:53:01;;;;;;;5.23;3.87;;;;;;;-142.65;62.19;50164.81;5114438;28;20212;-70
2022/10/28 09:55:28;;;;;;;7.03;3.97;;;;;;;;;;5114086;28;20177;-70
2022/10/28 09:57:54;;;;;;;8.23;4.97;;;;;;;;;;5113667;28;20196;-70
2022/10/28 10:00:21;;;;;;;8.40;4.77;;;;;;;-142.65;61.27;50168.78;5117635;28;20555;-70
2022/10/28 10:02:51;;;;;;;14.13;4.40;;;;;;;-142.65;61.35;50162.81;5117504;28;20205;-70
2022/10/28 10:05:18;;;;;;;6.47;3.80;;;;;;;-142.65;61.19;50164.81;5117772;28;20643;-70
2022/10/28 10:07:58;;;;;;;5.67;4.30;;;;;;;-142.65;61.47;50164.81;5117492;28;20198;-70
2022/10/28 10:10:26;;;;;;;12.77;4.30;;;;;;;;;;5117713;28;20173;-70
2022/10/28 10:12:58;;;;;;;12.47;4.90;;;;;;;-142.65;61.90;50164.81;5117201;28;20213;-70
2022/10/28 10:15:41;;;;;;;12.83;4.53;;;;;;;-142.65;62.24;50160.81;5117597;28;20280;-70
2022/10/28 10:18:14;;;;;;;16.30;4.50;;;;;;;-142.65;61.84;50162.81;5117515;28;20165;-70
2022/10/28 10:20:47;;;;;;;4.43;4.07;;;;;;;-142.65;58.92;50164.81;5117508;28;20173;-71
2022/10/28 10:23:33;;;;;;;12.60;4.13;;;;;;;-142.65;58.98;50164.81;5117733;28;20188;-71
2022/10/28 10:26:06;;;;;;;13.37;3.83;;;;;;;-142.65;60.11;50162.81;5117694;28;20177;-70
2022/10/28 10:28:42;;;;;;;12.17;4.10;;;;;;;-142.65;60.15;50168.78;5117620;28;20698;-70
2022/10/28 10:31:17;;;;;;;11.43;3.97;;;;;;;-142.65;61.27;50162.81;5117299;28;20223;-71
2022/10/28 10:33:48;;;;;;;5.73;4.07;;;;;;;-142.65;61.36;50162.81;5117256;28;20201;-70
2022/10/28 10:36:16;;;;;;;15.15;4.68;;;;;;;;;;5117192;28;20169;-70
2022/10/28 10:38:47;;;;;;;5.47;3.73;;;;;;;;;;5115206;28;20192;-71
2022/10/28 10:41:36;;;;;;;12.50;4.80;;;;;;;-142.65;59.85;50164.81;5114620;28;20214;-71
2022/10/28 10:44:15;;;;;;;13.18;4.53;;;;;;;;;;5115261;28;20523;-71
2022/10/28 10:46:41;;;;;;;8.23;3.88;;;;;;;;;;5115250;28;20175;-71
2022/10/28 10:49:13;;;;;;;13.13;4.43;;;;;;;-142.65;58.41;50162.81;5115244;28;20182;-71
2022/10/28 10:51:50;;;;;;;10.98;3.65;;;;;;;-142.65;58.53;50164.81;5115455;28;20686;-71
2022/10/28 10:54:18;;;;;;;14.60;4.22;;;;;;;;;;5115785;28;20185;-71
2022/10/28 10:56:44;;;;;;;10.98;5.32;;;;;;;;;;5116559;28;20659;-71
2022/10/28 10:59:36;;;;;;;9.68;3.83;;;;;;;;;;5116472;28;20224;-70
2022/10/28 11:02:03;;;;;;;12.18;3.58;;;;;;;;;;5112587;28;20220;-70
2022/10/28 11:04:30;;;;;;;9.18;4.82;;;;;;;;;;5116690;28;20197;-70
2022/10/28 11:06:57;;;;;;;13.85;4.18;;;;;;;-142.65;59.48;50164.81;5116915;28;20207;-70
2022/10/28 11:09:26;;;;;;;10.52;4.80;;;;;;;;;;5116049;28;20186;-70
2022/10/28 11:11:54;;;;;;;32.80;5.63;;;;;;;;;;5115722;28;20216;-70
2022/10/28 11:14:30;;;;;;;7.35;3.92;;;;;;;-142.65;58.99;50164.81;5116066;28;20209;-70
2022/10/28 11:16:56;;;;;;;13.25;4.35;;;;;;;;;;5116757;28;20523;-70
2022/10/28 11:19:36;;;;;;;9.88;4.00;;;;;;;-142.65;57.70;50162.81;5116594;28;20653;-70
2022/10/28 11:22:15;;;;;;;9.23;4.45;;;;;;;;;;5116122;28;20212;-70
2022/10/28 11:25:20;;;;;;;7.97;3.95;;;;;;;-142.65;58.41;50172.78;5116209;28;20185;-70
2022/10/28 11:28:18;;;;;;;6.70;4.40;;;;;;;-142.65;58.46;50170.78;5074671;28;20201;-70
2022/10/28 11:31:06;;;;;;;19.75;4.30;;;;;;;-142.65;59.07;50101.06;5116497;28;20260;-70
2022/10/28 11:33:37;;;;;;;7.63;4.38;;;;;;;;;;5115858;28;20201;-70
2022/10/28 11:36:10;;;;;;;5.13;4.47;;;;;;;-142.65;59.20;50164.81;5116187;28;20174;-70
2022/10/28 11:39:11;;;;;;;21.65;5.00;;;;;;;-142.65;58.58;50162.81;5115885;28;20173;-70
2022/10/28 11:41:43;;;;;;;7.07;4.15;;;;;;;;;;5116075;28;20570;-70
2022/10/28 11:44:37;;;;;;;4.93;3.95;;;;;;;-142.65;58.77;50168.78;5115694;28;20181;-70
2022/10/28 11:47:08;;;;;;;8.25;4.78;;;;;;;;;;5097698;28;20189;-70
2022/10/28 11:50:04;;;;;;;11.85;5.18;;;;;;;-142.65;58.33;50164.81;5115376;28;20193;-70
2022/10/28 11:52:41;;;;;;;7.65;4.55;;;;;;;-142.65;58.60;50170.78;5115426;28;20567;-70
2022/10/28 11:55:29;;;;;;;12.43;4.13;;;;;;;-142.65;57.91;50162.81;5115268;28;20555;-70
2022/10/28 11:58:01;;;;;;;25.25;4.40;;;;;;;;;;5115489;28;20180;-70
2022/10/28 12:00:40;;;;;;;10.63;4.40;;;;;;;-142.65;58.61;50164.81;5115304;28;20265;-70
2022/10/28 12:03:41;;;;;;;8.98;4.85;;;;;;;-142.65;58.22;50168.78;5115152;28;20184;-70
2022/10/28 12:06:16;;;;;;;8.45;5.03;;;;;;;-142.65;58.35;50164.81;5115080;28;20189;-70
2022/10/28 12:09:17;;;;;;;6.93;5.05;;;;;;;-142.65;57.35;50162.81;5115376;28;20173;-70
2022/10/28 12:12:28;;;;;;;11.38;4.03;;;;;;;-142.65;57.88;50170.78;5114863;28;20205;-70
2022/10/28 12:14:55;;;;;;;19.90;4.75;;;;;;;;;;5095486;28;20205;-70
2022/10/28 12:17:42;;;;;;;14.07;4.30;;;;;;;-142.65;57.47;50170.78;5114999;28;20178;-70
2022/10/28 12:20:19;;;;;;;5.60;4.93;;;;;;;;;;5115035;28;20543;-70
2022/10/28 12:22:49;;;;;;;7.28;4.35;;;;;;;-142.65;57.17;50164.81;5114731;28;20208;-70
2022/10/28 12:25:24;;;;;;;7.53;5.00;;;;;;;-142.65;57.46;50162.81;5115026;28;20517;-70
2022/10/28 12:27:56;;;;;;;9.23;4.78;;;;;;;-142.65;56.74;50162.81;5114701;28;20177;-71
2022/10/28 12:30:26;;;;;;;14.63;5.20;;;;;;;-142.65;56.76;50170.78;5114722;28;20174;-71